createdAt,value
2018-04-30T00:01:17.341Z,14.37
2018-04-30T00:03:45.637Z,14.35
2018-04-30T00:06:14.013Z,14.33
2018-04-30T00:08:42.357Z,14.32
2018-04-30T00:11:10.694Z,14.30
2018-04-30T00:13:38.988Z,14.29
2018-04-30T00:16:07.274Z,14.26
2018-04-30T00:18:35.546Z,14.25
2018-04-30T00:21:04.598Z,14.17
2018-04-30T00:23:32.863Z,14.20
2018-04-30T00:26:01.363Z,14.19
2018-04-30T00:28:29.619Z,14.11
2018-04-30T00:30:58.756Z,14.15
2018-04-30T00:33:27.014Z,14.20
2018-04-30T00:35:56.158Z,14.17
2018-04-30T00:38:24.404Z,14.20
2018-04-30T00:40:52.740Z,14.12
2018-04-30T00:43:21.026Z,14.08
2018-04-30T00:45:49.317Z,14.03
2018-04-30T00:48:18.331Z,13.97
2018-04-30T00:50:46.701Z,13.99
2018-04-30T00:53:15.746Z,13.89
2018-04-30T00:55:44.114Z,13.93
2018-04-30T00:58:12.390Z,13.94
2018-04-30T01:00:41.508Z,13.93
2018-04-30T01:03:10.554Z,13.95
2018-04-30T01:05:38.846Z,13.95
2018-04-30T01:08:07.103Z,13.99
2018-04-30T01:10:35.384Z,13.98
2018-04-30T01:13:04.487Z,13.98
2018-04-30T01:15:33.617Z,13.99
2018-04-30T01:18:01.874Z,13.98
2018-04-30T01:20:31.096Z,13.98
2018-04-30T01:23:00.227Z,13.94
2018-04-30T01:25:28.484Z,13.95
2018-04-30T01:27:57.527Z,13.91
2018-04-30T01:30:25.909Z,13.91
2018-04-30T01:32:54.206Z,13.88
2018-04-30T01:35:22.484Z,13.89
2018-04-30T01:37:50.757Z,13.88
2018-04-30T01:40:19.018Z,13.88
2018-04-30T01:42:47.287Z,13.89
2018-04-30T01:45:15.575Z,13.89
2018-04-30T01:47:43.846Z,13.77
2018-04-30T01:50:12.135Z,13.77
2018-04-30T01:52:40.393Z,13.76
2018-04-30T01:55:09.443Z,13.77
2018-04-30T01:57:37.908Z,13.78
2018-04-30T02:00:06.196Z,13.80
2018-04-30T02:02:35.416Z,13.83
2018-04-30T02:05:04.561Z,13.80
2018-04-30T02:07:32.820Z,13.80
2018-04-30T02:10:04.083Z,13.83
2018-04-30T02:12:32.484Z,13.85
2018-04-30T02:15:01.519Z,13.89
2018-04-30T02:17:29.883Z,13.85
2018-04-30T02:19:58.168Z,13.83
2018-04-30T02:22:26.463Z,13.80
2018-04-30T02:24:55.486Z,13.82
2018-04-30T02:27:23.752Z,13.84
2018-04-30T02:29:52.775Z,13.85
2018-04-30T02:32:21.032Z,13.85
2018-04-30T02:34:50.081Z,13.86
2018-04-30T02:37:18.425Z,13.86
2018-04-30T02:39:46.646Z,13.85
2018-04-30T02:42:15.667Z,13.78
2018-04-30T02:44:43.946Z,13.78
2018-04-30T02:47:12.240Z,13.79
2018-04-30T02:49:40.537Z,13.82
2018-04-30T02:52:08.818Z,13.80
2018-04-30T02:54:37.089Z,13.83
2018-04-30T02:57:05.393Z,13.84
2018-04-30T02:59:34.407Z,13.83
2018-04-30T03:02:02.687Z,13.80
2018-04-30T03:04:31.735Z,13.81
2018-04-30T03:07:00.013Z,13.78
2018-04-30T03:09:28.268Z,13.74
2018-04-30T03:11:57.323Z,13.70
2018-04-30T03:14:25.600Z,13.71
2018-04-30T03:16:53.868Z,13.70
2018-04-30T03:19:22.899Z,13.67
2018-04-30T03:21:51.151Z,13.67
2018-04-30T03:24:20.189Z,13.67
2018-04-30T03:26:48.569Z,13.65
2018-04-30T03:29:16.841Z,13.69
2018-04-30T03:31:45.866Z,13.70
2018-04-30T03:34:14.139Z,13.70
2018-04-30T03:36:43.239Z,13.66
2018-04-30T03:39:11.470Z,13.65
2018-04-30T03:41:39.800Z,13.57
2018-04-30T03:44:08.058Z,13.57
2018-04-30T03:46:36.426Z,13.55
2018-04-30T03:49:05.467Z,13.57
2018-04-30T03:51:33.724Z,13.59
2018-04-30T03:54:02.068Z,13.56
2018-04-30T03:56:30.260Z,13.56
2018-04-30T03:58:58.545Z,13.55
2018-04-30T04:01:44.472Z,13.54
2018-04-30T04:04:30.445Z,13.56
2018-04-30T04:06:58.716Z,13.56
2018-04-30T04:09:26.971Z,13.57
2018-04-30T04:11:55.992Z,13.56
2018-04-30T04:14:24.347Z,13.54
2018-04-30T04:16:52.609Z,13.48
2018-04-30T04:19:20.872Z,13.53
2018-04-30T04:21:49.135Z,13.48
2018-04-30T04:24:18.179Z,13.50
2018-04-30T04:26:46.560Z,13.50
2018-04-30T04:29:14.916Z,13.51
2018-04-30T04:31:43.958Z,13.44
2018-04-30T04:34:12.975Z,13.45
2018-04-30T04:36:41.267Z,13.44
2018-04-30T04:39:09.553Z,13.41
2018-04-30T04:41:37.903Z,13.41
2018-04-30T04:44:06.359Z,13.34
2018-04-30T04:46:34.735Z,13.36
2018-04-30T04:49:03.222Z,13.25
2018-04-30T04:51:31.490Z,13.22
2018-04-30T04:54:00.529Z,13.22
2018-04-30T04:56:28.783Z,13.23
2018-04-30T04:58:57.828Z,13.23
2018-04-30T05:01:26.119Z,13.24
2018-04-30T05:03:54.397Z,13.28
2018-04-30T05:06:23.411Z,13.27
2018-04-30T05:08:51.735Z,13.33
2018-04-30T05:11:20.047Z,13.31
2018-04-30T05:13:48.315Z,13.35
2018-04-30T05:16:16.638Z,13.34
2018-04-30T05:18:44.959Z,13.42
2018-04-30T05:21:13.264Z,13.43
2018-04-30T05:23:41.543Z,13.49
2018-04-30T05:26:10.631Z,13.52
2018-04-30T05:28:39.719Z,13.56
2018-04-30T05:31:08.155Z,13.57
2018-04-30T05:33:36.421Z,13.58
2018-04-30T05:36:05.499Z,13.63
2018-04-30T05:38:33.758Z,13.61
2018-04-30T05:41:02.018Z,13.61
2018-04-30T05:43:31.076Z,13.61
2018-04-30T05:45:59.325Z,13.59
2018-04-30T05:48:27.589Z,13.60
2018-04-30T05:50:56.015Z,13.61
2018-04-30T05:53:24.302Z,13.59
2018-04-30T05:55:52.555Z,13.60
2018-04-30T05:58:21.602Z,13.65
2018-04-30T06:00:49.893Z,13.60
2018-04-30T06:03:18.136Z,13.63
2018-04-30T06:05:47.169Z,13.63
2018-04-30T06:08:16.204Z,13.64
2018-04-30T06:10:44.471Z,13.70
2018-04-30T06:13:13.507Z,13.72
2018-04-30T06:15:41.763Z,13.74
2018-04-30T06:18:10.893Z,13.68
2018-04-30T06:20:39.296Z,13.66
2018-04-30T06:23:07.587Z,13.62
2018-04-30T06:25:35.865Z,13.60
2018-04-30T06:28:04.153Z,13.57
2018-04-30T06:30:33.265Z,13.58
2018-04-30T06:33:01.520Z,13.57
2018-04-30T06:35:29.789Z,13.60
2018-04-30T06:37:58.153Z,13.57
2018-04-30T06:40:26.411Z,13.49
2018-04-30T06:42:55.451Z,13.43
2018-04-30T06:45:23.706Z,13.38
2018-04-30T06:47:52.728Z,13.40
2018-04-30T06:50:20.983Z,13.39
2018-04-30T06:52:49.254Z,13.44
2018-04-30T06:55:17.914Z,13.43
2018-04-30T06:57:46.191Z,13.48
2018-04-30T07:00:15.325Z,13.45
2018-04-30T07:02:44.339Z,13.46
2018-04-30T07:05:12.716Z,13.45
2018-04-30T07:07:40.983Z,13.48
2018-04-30T07:10:10.005Z,13.44
2018-04-30T07:12:38.319Z,13.41
2018-04-30T07:15:06.812Z,13.29
2018-04-30T07:17:35.186Z,13.22
2018-04-30T07:20:03.488Z,13.18
2018-04-30T07:22:32.501Z,13.21
2018-04-30T07:25:00.737Z,13.17
2018-04-30T07:27:29.114Z,13.16
2018-04-30T07:29:57.314Z,13.15
2018-04-30T07:32:25.605Z,13.13
2018-04-30T07:34:53.924Z,13.15
2018-04-30T07:37:22.941Z,13.20
2018-04-30T07:39:51.251Z,13.19
2018-04-30T07:42:19.529Z,13.23
2018-04-30T07:44:47.775Z,13.29
2018-04-30T07:47:16.046Z,13.30
2018-04-30T07:49:44.327Z,13.33
2018-04-30T07:52:12.580Z,13.29
2018-04-30T07:54:40.869Z,13.30
2018-04-30T07:57:10.006Z,13.32
2018-04-30T07:59:38.275Z,13.29
2018-04-30T08:02:06.569Z,13.29
2018-04-30T08:04:34.958Z,13.30
2018-04-30T08:07:03.246Z,13.27
2018-04-30T08:09:31.492Z,13.21
2018-04-30T08:11:59.764Z,13.19
2018-04-30T08:14:28.117Z,13.18
2018-04-30T08:16:57.230Z,13.17
2018-04-30T08:19:25.573Z,13.23
2018-04-30T08:21:54.092Z,13.20
2018-04-30T08:24:23.122Z,13.17
2018-04-30T08:26:52.207Z,13.18
2018-04-30T08:29:20.453Z,13.14
2018-04-30T08:31:48.699Z,13.15
2018-04-30T08:34:16.963Z,13.18
2018-04-30T08:36:46.090Z,13.17
2018-04-30T08:39:14.271Z,13.17
2018-04-30T08:41:43.399Z,13.17
2018-04-30T08:44:12.542Z,13.23
2018-04-30T08:46:40.836Z,13.20
2018-04-30T08:49:09.092Z,13.20
2018-04-30T08:51:37.358Z,13.20
2018-04-30T08:54:05.676Z,13.19
2018-04-30T08:56:34.686Z,13.20
2018-04-30T08:59:02.940Z,13.27
2018-04-30T09:01:31.260Z,13.34
2018-04-30T09:03:59.524Z,13.42
2018-04-30T09:06:27.849Z,13.50
2018-04-30T09:08:56.853Z,13.51
2018-04-30T09:11:25.230Z,13.55
2018-04-30T09:13:54.278Z,13.55
2018-04-30T09:16:22.522Z,13.61
2018-04-30T09:18:51.661Z,13.58
2018-04-30T09:21:19.919Z,13.60
2018-04-30T09:23:49.040Z,13.68
2018-04-30T09:26:17.219Z,13.81
2018-04-30T09:28:46.229Z,13.97
2018-04-30T09:31:15.253Z,13.98
2018-04-30T09:33:43.541Z,14.23
2018-04-30T09:36:11.948Z,14.24
2018-04-30T09:38:40.231Z,14.33
2018-04-30T09:41:08.507Z,14.40
2018-04-30T09:43:37.540Z,14.50
2018-04-30T09:46:05.787Z,14.71
2018-04-30T09:48:34.810Z,14.94
2018-04-30T09:51:03.833Z,14.85
2018-04-30T09:53:32.092Z,14.98
2018-04-30T09:56:01.146Z,15.22
2018-04-30T09:58:29.391Z,15.23
2018-04-30T10:00:58.429Z,15.34
2018-04-30T10:03:26.817Z,15.55
2018-04-30T10:05:55.927Z,15.50
2018-04-30T10:08:24.194Z,16.25
2018-04-30T10:10:52.498Z,16.42
2018-04-30T10:13:20.796Z,16.44
2018-04-30T10:15:49.829Z,16.46
2018-04-30T10:18:18.129Z,16.30
2018-04-30T10:20:46.384Z,16.32
2018-04-30T10:23:14.677Z,16.48
2018-04-30T10:25:43.713Z,15.84
2018-04-30T10:28:12.068Z,15.82
2018-04-30T10:30:41.086Z,15.37
2018-04-30T10:33:10.149Z,15.39
2018-04-30T10:35:39.205Z,15.63
2018-04-30T10:38:07.546Z,15.74
2018-04-30T10:40:36.605Z,15.36
2018-04-30T10:43:04.889Z,15.34
2018-04-30T10:45:35.021Z,15.35
2018-04-30T10:48:03.314Z,15.06
2018-04-30T10:50:32.386Z,15.06
2018-04-30T10:53:00.716Z,15.10
2018-04-30T10:55:28.980Z,15.10
2018-04-30T10:57:57.996Z,14.86
2018-04-30T11:00:27.020Z,14.92
2018-04-30T11:02:55.307Z,14.94
2018-04-30T11:05:23.553Z,15.01
2018-04-30T11:07:51.888Z,14.98
2018-04-30T11:10:20.935Z,14.92
2018-04-30T11:12:49.292Z,14.93
2018-04-30T11:15:18.305Z,14.90
2018-04-30T11:17:46.574Z,14.99
2018-04-30T11:20:15.813Z,14.91
2018-04-30T11:22:44.241Z,15.10
2018-04-30T11:25:13.214Z,15.39
2018-04-30T11:27:41.481Z,15.41
2018-04-30T11:30:10.568Z,15.41
2018-04-30T11:32:39.709Z,15.49
2018-04-30T11:35:08.000Z,15.36
2018-04-30T11:37:36.265Z,15.50
2018-04-30T11:40:05.315Z,15.86
2018-04-30T11:42:33.579Z,16.18
2018-04-30T11:45:01.949Z,15.80
2018-04-30T11:47:30.980Z,15.91
2018-04-30T11:49:59.276Z,15.67
2018-04-30T11:52:27.518Z,15.66
2018-04-30T11:54:55.856Z,16.00
2018-04-30T11:57:24.112Z,16.20
2018-04-30T11:59:52.419Z,16.18
2018-04-30T12:02:21.460Z,16.47
2018-04-30T12:04:49.800Z,16.30
2018-04-30T12:07:17.976Z,16.74
2018-04-30T12:09:46.263Z,16.83
2018-04-30T12:12:14.528Z,16.50
2018-04-30T12:14:43.162Z,16.35
2018-04-30T12:17:11.450Z,15.93
2018-04-30T12:19:40.604Z,15.20
2018-04-30T12:22:09.139Z,14.84
2018-04-30T12:24:37.372Z,14.94
2018-04-30T12:27:05.662Z,15.47
2018-04-30T12:29:34.784Z,15.55
2018-04-30T12:32:03.175Z,15.93
2018-04-30T12:34:31.424Z,16.13
2018-04-30T12:36:59.679Z,15.85
2018-04-30T12:39:28.045Z,14.94
2018-04-30T12:41:57.093Z,14.57
2018-04-30T12:44:25.464Z,14.43
2018-04-30T12:46:53.940Z,14.27
2018-04-30T12:49:22.230Z,14.03
2018-04-30T12:51:50.464Z,13.96
2018-04-30T12:54:18.783Z,13.61
2018-04-30T12:56:47.126Z,13.60
2018-04-30T12:59:17.937Z,13.83
2018-04-30T13:01:47.062Z,14.17
2018-04-30T13:04:15.411Z,14.27
2018-04-30T13:06:43.688Z,14.31
2018-04-30T13:09:12.132Z,14.40
2018-04-30T13:11:40.431Z,14.69
2018-04-30T13:14:08.908Z,15.31
2018-04-30T13:16:38.385Z,15.88
2018-04-30T13:19:07.577Z,16.46
2018-04-30T13:21:36.253Z,16.65
2018-04-30T13:24:04.529Z,16.42
2018-04-30T13:26:33.544Z,15.91
2018-04-30T13:29:01.847Z,15.86
2018-04-30T13:31:30.111Z,15.01
2018-04-30T13:33:58.352Z,14.63
2018-04-30T13:36:26.627Z,14.14
2018-04-30T13:38:54.913Z,13.34
2018-04-30T13:41:23.160Z,12.96
2018-04-30T13:43:52.196Z,12.91
2018-04-30T13:46:21.305Z,13.05
2018-04-30T13:48:49.540Z,13.38
2018-04-30T13:51:17.854Z,13.75
2018-04-30T13:53:46.146Z,13.83
2018-04-30T13:56:14.468Z,13.75
2018-04-30T13:58:42.729Z,13.71
2018-04-30T14:01:11.970Z,13.73
2018-04-30T14:03:40.356Z,13.75
2018-04-30T14:06:08.656Z,13.80
2018-04-30T14:08:36.929Z,13.87
2018-04-30T14:11:05.978Z,13.92
2018-04-30T14:13:34.375Z,14.07
2018-04-30T14:16:02.738Z,14.15
2018-04-30T14:18:30.987Z,14.14
2018-04-30T14:20:59.316Z,14.26
2018-04-30T14:23:27.575Z,14.09
2018-04-30T14:25:55.846Z,14.18
2018-04-30T14:28:24.191Z,14.23
2018-04-30T14:30:52.514Z,14.22
2018-04-30T14:33:20.856Z,14.24
2018-04-30T14:35:49.889Z,14.32
2018-04-30T14:38:18.202Z,14.21
2018-04-30T14:40:47.276Z,14.22
2018-04-30T14:43:16.338Z,14.19
2018-04-30T14:45:44.607Z,14.31
2018-04-30T14:48:12.918Z,14.26
2018-04-30T14:50:41.994Z,14.43
2018-04-30T14:53:10.287Z,14.43
2018-04-30T14:55:38.786Z,14.39
2018-04-30T14:58:08.107Z,14.39
2018-04-30T15:00:36.458Z,14.50
2018-04-30T15:03:04.756Z,14.85
2018-04-30T15:05:33.004Z,15.08
2018-04-30T15:08:01.312Z,15.17
2018-04-30T15:10:30.346Z,15.07
2018-04-30T15:12:58.758Z,14.89
2018-04-30T15:15:27.025Z,15.08
2018-04-30T15:17:55.330Z,15.20
2018-04-30T15:20:23.710Z,15.11
2018-04-30T15:22:52.025Z,15.11
2018-04-30T15:25:20.319Z,15.03
2018-04-30T15:27:48.601Z,14.79
2018-04-30T15:30:16.885Z,14.77
2018-04-30T15:32:45.214Z,14.97
2018-04-30T15:35:13.501Z,14.95
2018-04-30T15:37:41.810Z,14.73
2018-04-30T15:40:10.196Z,14.62
2018-04-30T15:42:38.468Z,14.41
2018-04-30T15:45:06.828Z,14.39
2018-04-30T15:47:35.240Z,14.39
2018-04-30T15:50:03.514Z,14.48
2018-04-30T15:52:31.787Z,14.55
2018-04-30T15:55:00.102Z,14.52
2018-04-30T15:57:28.456Z,14.56
2018-04-30T15:59:57.487Z,14.45
2018-04-30T16:02:25.760Z,14.47
2018-04-30T16:04:54.262Z,14.43
2018-04-30T16:07:22.557Z,14.39
2018-04-30T16:09:51.459Z,14.39
2018-04-30T16:12:19.720Z,14.42
2018-04-30T16:14:48.759Z,14.45
2018-04-30T16:17:17.055Z,14.37
2018-04-30T16:19:45.313Z,14.25
2018-04-30T16:22:14.448Z,14.19
2018-04-30T16:24:43.674Z,14.17
2018-04-30T16:27:12.007Z,14.08
2018-04-30T16:29:40.355Z,14.03
2018-04-30T16:32:08.636Z,14.01
2018-04-30T16:34:36.994Z,13.82
2018-04-30T16:37:05.976Z,13.81
2018-04-30T16:39:35.759Z,13.81
2018-04-30T16:42:04.421Z,13.79
2018-04-30T16:44:33.565Z,13.78
2018-04-30T16:47:01.815Z,13.80
2018-04-30T16:49:31.481Z,13.96
2018-04-30T16:51:59.739Z,13.88
2018-04-30T16:54:28.815Z,13.99
2018-04-30T16:56:57.164Z,13.99
2018-04-30T16:59:25.457Z,13.96
2018-04-30T17:01:54.466Z,13.86
2018-04-30T17:04:22.773Z,13.79
2018-04-30T17:06:51.090Z,13.76
2018-04-30T17:09:19.341Z,13.72
2018-04-30T17:11:47.619Z,13.69
2018-04-30T17:14:15.978Z,13.62
2018-04-30T17:16:45.067Z,13.59
2018-04-30T17:19:13.417Z,13.57
2018-04-30T17:21:42.461Z,13.53
2018-04-30T17:24:10.744Z,13.37
2018-04-30T17:26:39.010Z,13.38
2018-04-30T17:29:07.269Z,13.37
2018-04-30T17:31:35.567Z,13.31
2018-04-30T17:34:04.755Z,13.31
2018-04-30T17:36:33.096Z,13.29
2018-04-30T17:39:01.269Z,13.42
2018-04-30T17:41:30.283Z,13.33
2018-04-30T17:43:58.576Z,13.17
2018-04-30T17:46:26.890Z,13.15
2018-04-30T17:48:55.193Z,13.10
2018-04-30T17:51:23.460Z,13.05
2018-04-30T17:53:51.711Z,12.97
2018-04-30T17:56:20.863Z,12.88
2018-04-30T17:58:49.164Z,12.82
2018-04-30T18:01:17.419Z,12.77
2018-04-30T18:03:46.428Z,12.74
2018-04-30T18:06:14.696Z,12.74
2018-04-30T18:08:43.729Z,12.70
2018-04-30T18:11:11.999Z,12.68
2018-04-30T18:13:40.336Z,12.69
2018-04-30T18:16:08.629Z,12.69
2018-04-30T18:18:37.703Z,12.71
2018-04-30T18:21:06.453Z,12.69
2018-04-30T18:23:34.830Z,12.58
2018-04-30T18:26:03.087Z,12.54
2018-04-30T18:28:31.382Z,12.55
2018-04-30T18:30:59.671Z,12.53
2018-04-30T18:33:28.187Z,12.50
2018-04-30T18:35:57.450Z,12.41
2018-04-30T18:38:30.517Z,12.40
2018-04-30T18:40:59.079Z,12.36
2018-04-30T18:43:27.365Z,12.26
2018-04-30T18:45:55.655Z,12.22
2018-04-30T18:48:24.689Z,12.11
2018-04-30T18:50:52.963Z,12.03
2018-04-30T18:53:21.229Z,12.00
2018-04-30T18:55:50.277Z,11.90
2018-04-30T18:58:18.625Z,11.84
2018-04-30T19:00:47.661Z,11.78
2018-04-30T19:03:16.019Z,11.72
2018-04-30T19:05:44.280Z,11.59
2018-04-30T19:08:12.609Z,11.50
2018-04-30T19:10:41.643Z,11.39
2018-04-30T19:13:10.038Z,11.26
2018-04-30T19:15:38.317Z,11.19
2018-04-30T19:18:06.580Z,11.03
2018-04-30T19:20:35.617Z,10.95
2018-04-30T19:23:03.902Z,10.77
2018-04-30T19:25:33.004Z,10.64
2018-04-30T19:28:02.028Z,10.49
2018-04-30T19:30:30.287Z,10.39
2018-04-30T19:32:59.428Z,10.34
2018-04-30T19:35:28.434Z,10.32
2018-04-30T19:37:57.464Z,10.27
2018-04-30T19:40:25.925Z,10.19
2018-04-30T19:42:54.949Z,10.08
2018-04-30T19:45:23.232Z,10.02
2018-04-30T19:47:52.253Z,10.01
2018-04-30T19:50:22.584Z,10.00
2018-04-30T19:52:50.913Z,10.00
2018-04-30T19:55:19.137Z,10.04
2018-04-30T19:57:47.381Z,10.04
2018-04-30T20:00:15.656Z,10.00
2018-04-30T20:02:44.036Z,9.87
2018-04-30T20:05:12.334Z,9.77
2018-04-30T20:07:40.623Z,9.65
2018-04-30T20:10:08.915Z,9.54
2018-04-30T20:12:37.163Z,9.40
2018-04-30T20:15:06.223Z,9.25
2018-04-30T20:17:34.590Z,9.18
2018-04-30T20:20:02.834Z,9.09
2018-04-30T20:22:31.877Z,9.03
2018-04-30T20:25:01.004Z,9.04
2018-04-30T20:27:29.271Z,9.01
2018-04-30T20:29:58.508Z,9.03
2018-04-30T20:32:26.771Z,9.06
2018-04-30T20:34:55.780Z,9.14
2018-04-30T20:37:24.804Z,9.21
2018-04-30T20:39:54.187Z,9.25
2018-04-30T20:42:22.426Z,9.38
2018-04-30T20:44:50.705Z,9.37
2018-04-30T20:47:18.963Z,9.41
2018-04-30T20:49:47.219Z,9.35
2018-04-30T20:52:15.597Z,9.33
2018-04-30T20:54:44.049Z,9.33
2018-04-30T20:57:12.341Z,9.30
2018-04-30T20:59:40.599Z,9.30
2018-04-30T21:02:08.949Z,9.28
2018-04-30T21:04:37.186Z,9.24
2018-04-30T21:07:05.525Z,9.28
2018-04-30T21:09:34.545Z,9.27
2018-04-30T21:12:02.817Z,9.26
2018-04-30T21:14:31.094Z,9.21
2018-04-30T21:17:00.107Z,9.19
2018-04-30T21:19:29.438Z,9.15
2018-04-30T21:21:57.718Z,9.11
2018-04-30T21:24:27.021Z,9.05
2018-04-30T21:29:52.401Z,9.00
2018-04-30T21:32:21.613Z,9.02
2018-04-30T21:34:49.904Z,8.99
2018-04-30T21:37:18.179Z,8.96
2018-04-30T21:39:47.189Z,8.92
2018-04-30T21:42:16.291Z,8.79
2018-04-30T21:44:45.306Z,8.70
2018-04-30T21:47:13.588Z,8.62
2018-04-30T21:49:41.845Z,8.62
2018-04-30T21:52:10.098Z,8.62
2018-04-30T21:54:38.485Z,8.62
2018-04-30T21:57:06.718Z,8.60
2018-04-30T21:59:34.998Z,8.58
2018-04-30T22:02:03.244Z,8.56
2018-04-30T22:04:31.545Z,8.50
2018-04-30T22:06:59.809Z,8.42
2018-04-30T22:09:28.821Z,8.44
2018-04-30T22:11:57.843Z,8.41
2018-04-30T22:14:26.122Z,8.35
2018-04-30T22:16:55.139Z,8.29
2018-04-30T22:19:23.396Z,8.19
2018-04-30T22:21:51.639Z,8.17
2018-04-30T22:24:19.914Z,8.14
2018-04-30T22:26:48.143Z,8.03
2018-04-30T22:29:16.408Z,7.92
2018-04-30T22:31:44.648Z,7.83
2018-04-30T22:34:12.920Z,7.82
2018-04-30T22:36:41.279Z,7.75
2018-04-30T22:39:09.457Z,7.73
2018-04-30T22:41:37.800Z,7.77
2018-04-30T22:44:06.100Z,7.75
2018-04-30T22:46:35.109Z,7.75
2018-04-30T22:49:04.119Z,7.73
2018-04-30T22:51:33.166Z,7.70
2018-04-30T22:54:01.437Z,7.63
2018-04-30T22:56:30.433Z,7.69
2018-04-30T22:58:59.462Z,7.63
2018-04-30T23:01:27.696Z,7.69
2018-04-30T23:03:55.943Z,7.67
2018-04-30T23:06:24.203Z,7.67
2018-04-30T23:08:53.211Z,7.63
2018-04-30T23:11:22.218Z,7.62
2018-04-30T23:13:51.265Z,7.58
2018-04-30T23:16:19.522Z,7.55
2018-04-30T23:21:15.317Z,7.43
2018-04-30T23:23:43.572Z,7.36
2018-04-30T23:26:12.592Z,7.34
2018-04-30T23:28:40.891Z,7.28
2018-04-30T23:31:09.150Z,7.20
2018-04-30T23:33:37.375Z,7.16
2018-04-30T23:36:05.771Z,7.09
2018-04-30T23:38:34.000Z,7.07
2018-04-30T23:41:02.251Z,7.03
2018-04-30T23:43:30.541Z,7.01
2018-04-30T23:45:58.804Z,6.96
2018-04-30T23:48:27.830Z,6.90
2018-04-30T23:50:56.136Z,6.93
2018-04-30T23:53:24.395Z,6.93
2018-04-30T23:55:53.401Z,6.93
2018-04-30T23:58:22.432Z,6.93
